Seiyu Maru — JD3189 — position and weather

sailwx.info

Track history (hours):
 
Tides and Currents Weather Stations Pressure Air Temp Water Temp Dewpoint Dewpoint Depression Visibility Wind Speed Wind Dir Waves Ship Positions

Seiyu Maru

Last reported at 2015-Aug-30 20:33 UTC. Time now 2015-Sep-01 14:07 UTC.
Position N 36°01' E 140°44'.

Length 75 m; draft 4.5 m.

Type: Cargo ship. MMSI: 431002433.

Date/timePositionNaut miles runAvg speedWind from/ knotsBaromVisibWave heightAir tempDewpointWater temp
2015-Aug-30 20:33N 36°01' E 140°44'4 3.9
2015-Aug-30 19:31N 35°57' E 140°42'0 0.0
2015-Aug-30 18:33N 35°57' E 140°42'0 0.0
2015-Aug-30 17:33N 35°57' E 140°42'0 0.0
2015-Aug-30 16:27N 35°57' E 140°42'0 0.0
2015-Aug-30 15:33N 35°57' E 140°42'0 0.0
2015-Aug-30 14:33N 35°57' E 140°42'0 0.0
2015-Aug-30 13:33N 35°57' E 140°42'0 0.0
2015-Aug-30 12:11N 35°57' E 140°42'0 0.0
2015-Aug-30 11:33N 35°57' E 140°42'0 0.0
2015-Aug-30 10:29N 35°57' E 140°42'0 0.0
2015-Aug-30 09:32N 35°57' E 140°42'0 0.0
2015-Aug-30 08:24N 35°57' E 140°42'0 0.0
2015-Aug-30 07:28N 35°57' E 140°42'0 0.0
2015-Aug-30 06:33N 35°57' E 140°42'0 0.0
2015-Aug-30 05:32N 35°57' E 140°42'0 0.0
2015-Aug-30 04:30N 35°57' E 140°42'0 0.0
2015-Aug-30 03:26N 35°57' E 140°42'0 0.0
2015-Aug-30 02:25N 35°57' E 140°42'0 0.0
2015-Aug-30 01:31N 35°57' E 140°42'0 0.0
2015-Aug-30 00:33N 35°57' E 140°42'0 0.0
2015-Aug-29 23:27N 35°57' E 140°42'0 0.0
2015-Aug-29 22:30N 35°57' E 140°42'0 0.0
2015-Aug-29 21:33N 35°57' E 140°42'0 0.0
2015-Aug-29 20:33N 35°57' E 140°42'0 0.0
2015-Aug-29 19:32N 35°57' E 140°42'0 0.0
2015-Aug-29 18:30N 35°57' E 140°42'0 0.0
2015-Aug-29 17:33N 35°57' E 140°42'0 0.0
2015-Aug-29 16:32N 35°57' E 140°42'3 3.0
2015-Aug-29 15:33N 35°57' E 140°45'24 7.5
2015-Aug-29 12:19N 35°33' E 140°50'2210.7
2015-Aug-29 10:14N 35°15' E 140°33'2111.7
2015-Aug-29 08:26N 35°01' E 140°14'264 6.0
2015-Aug-27 12:33N 34°05' E 135°01'2410.6
2015-Aug-27 10:16N 34°27' E 135°12'14 2.1
2015-Aug-27 03:33N 34°38' E 135°25'0 0.0
2015-Aug-27 02:33N 34°38' E 135°25'0 0.0
2015-Aug-27 01:33N 34°38' E 135°25'0 0.0
2015-Aug-27 00:33N 34°38' E 135°25'0 0.0
2015-Aug-26 23:33N 34°38' E 135°25'0 0.1
2015-Aug-26 22:33N 34°37' E 135°25'1 1.4
2015-Aug-26 21:33N 34°37' E 135°23'0 0.0
2015-Aug-26 20:33N 34°37' E 135°23'0 0.0
2015-Aug-26 19:33N 34°37' E 135°23'0 0.0
2015-Aug-26 18:33N 34°37' E 135°23'0 0.0
2015-Aug-26 17:33N 34°37' E 135°23'0 0.0
2015-Aug-26 16:33N 34°37' E 135°23'0 0.0
2015-Aug-26 15:33N 34°37' E 135°23'0 0.1
2015-Aug-26 14:33N 34°37' E 135°23'0 0.0
2015-Aug-26 13:29N 34°37' E 135°23'0 0.0
2015-Aug-26 12:33N 34°37' E 135°23'0 0.0
2015-Aug-26 11:33N 34°37' E 135°23'0 0.0
2015-Aug-26 10:33N 34°37' E 135°23'0 0.0
2015-Aug-26 09:33N 34°37' E 135°23'0 0.0
2015-Aug-26 08:33N 34°37' E 135°23'10 9.7
2015-Aug-26 07:33N 34°35' E 135°11'1110.3
2015-Aug-26 06:28N 34°37' E 134°58'1010.6
2015-Aug-26 05:31N 34°40' E 134°47'1 0.0
2015-Aug-24 09:31N 34°41' E 134°46'1111.7
2015-Aug-24 08:33N 34°38' E 134°59'1211.8
2015-Aug-24 07:33N 34°36' E 135°13'1111.1
2015-Aug-24 06:33N 34°39' E 135°26'1 1.2
2015-Aug-24 05:26N 34°39' E 135°28'0 0.0
2015-Aug-24 04:33N 34°39' E 135°28'0 0.0
2015-Aug-24 03:32N 34°39' E 135°28'0 0.0
2015-Aug-24 02:32N 34°39' E 135°28'0 0.0
2015-Aug-24 01:33N 34°39' E 135°28'0 0.0
2015-Aug-24 00:33N 34°39' E 135°28'0 0.0
2015-Aug-23 23:33N 34°39' E 135°28'0 0.0
2015-Aug-23 22:33N 34°39' E 135°28'0 0.0
2015-Aug-23 21:33N 34°39' E 135°28'0 0.0
2015-Aug-23 20:33N 34°39' E 135°28'0 0.0
2015-Aug-23 19:33N 34°39' E 135°28'0 0.0
2015-Aug-23 18:33N 34°39' E 135°28'0 0.0
2015-Aug-23 17:33N 34°39' E 135°28'0 0.0
2015-Aug-23 16:33N 34°39' E 135°28'0 0.0
2015-Aug-23 15:33N 34°39' E 135°28'0 0.0
2015-Aug-23 14:33N 34°39' E 135°28'0 0.0
2015-Aug-23 13:33N 34°39' E 135°28'0 0.0
2015-Aug-23 12:33N 34°39' E 135°28'0 0.0
2015-Aug-23 11:33N 34°39' E 135°28'0 0.0
2015-Aug-23 10:33N 34°39' E 135°28'0 0.0
2015-Aug-23 09:33N 34°39' E 135°28'0 0.0
2015-Aug-23 08:33N 34°39' E 135°28'0 0.0
2015-Aug-23 07:33N 34°39' E 135°28'0 0.0
2015-Aug-23 06:33N 34°39' E 135°28'0 0.0
2015-Aug-23 05:33N 34°39' E 135°28'0 0.0
2015-Aug-23 04:33N 34°39' E 135°28'0 0.0
2015-Aug-23 03:33N 34°39' E 135°28'0 0.0
2015-Aug-23 02:32N 34°39' E 135°28'0 0.0
2015-Aug-23 01:33N 34°39' E 135°28'0 0.0
2015-Aug-23 00:33N 34°39' E 135°28'0 0.0
2015-Aug-22 23:33N 34°39' E 135°28'0 0.0
2015-Aug-22 22:33N 34°39' E 135°28'0 0.0
2015-Aug-22 21:33N 34°39' E 135°28'0 0.0
2015-Aug-22 20:33N 34°39' E 135°28'0 0.0
2015-Aug-22 19:33N 34°39' E 135°28'0 0.0
2015-Aug-22 18:33N 34°39' E 135°28'0 0.0
2015-Aug-22 17:33N 34°39' E 135°28'0 0.0
2015-Aug-22 16:33N 34°39' E 135°28'0 0.0
2015-Aug-22 15:33N 34°39' E 135°28'0 0.0
2015-Aug-22 14:33N 34°39' E 135°28'0 0.0
2015-Aug-22 13:33N 34°39' E 135°28'0 0.0
2015-Aug-22 12:33N 34°39' E 135°28'0 0.0
2015-Aug-22 11:33N 34°39' E 135°28'0 0.0
2015-Aug-22 10:33N 34°39' E 135°28'0 0.0
2015-Aug-22 09:33N 34°39' E 135°28'0 0.0
2015-Aug-22 08:33N 34°39' E 135°28'0 0.0
2015-Aug-22 07:33N 34°39' E 135°28'0 0.0
2015-Aug-22 06:33N 34°39' E 135°28'5 4.7
2015-Aug-22 05:33N 34°37' E 135°22'0 0.4
2015-Aug-22 04:33N 34°37' E 135°23'0 0.0
2015-Aug-22 03:33N 34°37' E 135°23'0 0.3
2015-Aug-22 02:33N 34°37' E 135°22'1111.1
2015-Aug-22 01:33N 34°29' E 135°13'1110.9
2015-Aug-22 00:33N 34°20' E 135°05'1110.8
2015-Aug-21 23:33N 34°10' E 135°03'  
Track history (hours):
 
Tides and Currents Weather Stations Pressure Air Temp Water Temp Dewpoint Dewpoint Depression Visibility Wind Speed Wind Dir Waves Ship Positions

Seiyu Maru

Last reported at 2015-Aug-30 20:33 UTC. Time now 2015-Sep-01 14:07 UTC.
Position N 36°01' E 140°44'.

Length 75 m; draft 4.5 m.

Type: Cargo ship. MMSI: 431002433.

Date/timePositionNaut miles runAvg speedWind from/ knotsBaromVisibWave heightAir tempDewpointWater temp
2015-Aug-30 20:33N 36°01' E 140°44'4 3.9
2015-Aug-30 19:31N 35°57' E 140°42'0 0.0
2015-Aug-30 18:33N 35°57' E 140°42'0 0.0
2015-Aug-30 17:33N 35°57' E 140°42'0 0.0
2015-Aug-30 16:27N 35°57' E 140°42'0 0.0
2015-Aug-30 15:33N 35°57' E 140°42'0 0.0
2015-Aug-30 14:33N 35°57' E 140°42'0 0.0
2015-Aug-30 13:33N 35°57' E 140°42'0 0.0
2015-Aug-30 12:11N 35°57' E 140°42'0 0.0
2015-Aug-30 11:33N 35°57' E 140°42'0 0.0
2015-Aug-30 10:29N 35°57' E 140°42'0 0.0
2015-Aug-30 09:32N 35°57' E 140°42'0 0.0
2015-Aug-30 08:24N 35°57' E 140°42'0 0.0
2015-Aug-30 07:28N 35°57' E 140°42'0 0.0
2015-Aug-30 06:33N 35°57' E 140°42'0 0.0
2015-Aug-30 05:32N 35°57' E 140°42'0 0.0
2015-Aug-30 04:30N 35°57' E 140°42'0 0.0
2015-Aug-30 03:26N 35°57' E 140°42'0 0.0
2015-Aug-30 02:25N 35°57' E 140°42'0 0.0
2015-Aug-30 01:31N 35°57' E 140°42'0 0.0
2015-Aug-30 00:33N 35°57' E 140°42'0 0.0
2015-Aug-29 23:27N 35°57' E 140°42'0 0.0
2015-Aug-29 22:30N 35°57' E 140°42'0 0.0
2015-Aug-29 21:33N 35°57' E 140°42'0 0.0
2015-Aug-29 20:33N 35°57' E 140°42'0 0.0
2015-Aug-29 19:32N 35°57' E 140°42'0 0.0
2015-Aug-29 18:30N 35°57' E 140°42'0 0.0
2015-Aug-29 17:33N 35°57' E 140°42'0 0.0
2015-Aug-29 16:32N 35°57' E 140°42'3 3.0
2015-Aug-29 15:33N 35°57' E 140°45'24 7.5
2015-Aug-29 12:19N 35°33' E 140°50'2210.7
2015-Aug-29 10:14N 35°15' E 140°33'2111.7
2015-Aug-29 08:26N 35°01' E 140°14'264 6.0
2015-Aug-27 12:33N 34°05' E 135°01'2410.6
2015-Aug-27 10:16N 34°27' E 135°12'14 2.1
2015-Aug-27 03:33N 34°38' E 135°25'0 0.0
2015-Aug-27 02:33N 34°38' E 135°25'0 0.0
2015-Aug-27 01:33N 34°38' E 135°25'0 0.0
2015-Aug-27 00:33N 34°38' E 135°25'0 0.0
2015-Aug-26 23:33N 34°38' E 135°25'0 0.1
2015-Aug-26 22:33N 34°37' E 135°25'1 1.4
2015-Aug-26 21:33N 34°37' E 135°23'0 0.0
2015-Aug-26 20:33N 34°37' E 135°23'0 0.0
2015-Aug-26 19:33N 34°37' E 135°23'0 0.0
2015-Aug-26 18:33N 34°37' E 135°23'0 0.0
2015-Aug-26 17:33N 34°37' E 135°23'0 0.0
2015-Aug-26 16:33N 34°37' E 135°23'0 0.0
2015-Aug-26 15:33N 34°37' E 135°23'0 0.1
2015-Aug-26 14:33N 34°37' E 135°23'0 0.0
2015-Aug-26 13:29N 34°37' E 135°23'0 0.0
2015-Aug-26 12:33N 34°37' E 135°23'0 0.0
2015-Aug-26 11:33N 34°37' E 135°23'0 0.0
2015-Aug-26 10:33N 34°37' E 135°23'0 0.0
2015-Aug-26 09:33N 34°37' E 135°23'0 0.0
2015-Aug-26 08:33N 34°37' E 135°23'10 9.7
2015-Aug-26 07:33N 34°35' E 135°11'1110.3
2015-Aug-26 06:28N 34°37' E 134°58'1010.6
2015-Aug-26 05:31N 34°40' E 134°47'1 0.0
2015-Aug-24 09:31N 34°41' E 134°46'1111.7
2015-Aug-24 08:33N 34°38' E 134°59'1211.8
2015-Aug-24 07:33N 34°36' E 135°13'1111.1
2015-Aug-24 06:33N 34°39' E 135°26'1 1.2
2015-Aug-24 05:26N 34°39' E 135°28'0 0.0
2015-Aug-24 04:33N 34°39' E 135°28'0 0.0
2015-Aug-24 03:32N 34°39' E 135°28'0 0.0
2015-Aug-24 02:32N 34°39' E 135°28'0 0.0
2015-Aug-24 01:33N 34°39' E 135°28'0 0.0
2015-Aug-24 00:33N 34°39' E 135°28'0 0.0
2015-Aug-23 23:33N 34°39' E 135°28'0 0.0
2015-Aug-23 22:33N 34°39' E 135°28'0 0.0
2015-Aug-23 21:33N 34°39' E 135°28'0 0.0
2015-Aug-23 20:33N 34°39' E 135°28'0 0.0
2015-Aug-23 19:33N 34°39' E 135°28'0 0.0
2015-Aug-23 18:33N 34°39' E 135°28'0 0.0
2015-Aug-23 17:33N 34°39' E 135°28'0 0.0
2015-Aug-23 16:33N 34°39' E 135°28'0 0.0
2015-Aug-23 15:33N 34°39' E 135°28'0 0.0
2015-Aug-23 14:33N 34°39' E 135°28'0 0.0
2015-Aug-23 13:33N 34°39' E 135°28'0 0.0
2015-Aug-23 12:33N 34°39' E 135°28'0 0.0
2015-Aug-23 11:33N 34°39' E 135°28'0 0.0
2015-Aug-23 10:33N 34°39' E 135°28'0 0.0
2015-Aug-23 09:33N 34°39' E 135°28'0 0.0
2015-Aug-23 08:33N 34°39' E 135°28'0 0.0
2015-Aug-23 07:33N 34°39' E 135°28'0 0.0
2015-Aug-23 06:33N 34°39' E 135°28'0 0.0
2015-Aug-23 05:33N 34°39' E 135°28'0 0.0
2015-Aug-23 04:33N 34°39' E 135°28'0 0.0
2015-Aug-23 03:33N 34°39' E 135°28'0 0.0
2015-Aug-23 02:32N 34°39' E 135°28'0 0.0
2015-Aug-23 01:33N 34°39' E 135°28'0 0.0
2015-Aug-23 00:33N 34°39' E 135°28'0 0.0
2015-Aug-22 23:33N 34°39' E 135°28'0 0.0
2015-Aug-22 22:33N 34°39' E 135°28'0 0.0
2015-Aug-22 21:33N 34°39' E 135°28'0 0.0
2015-Aug-22 20:33N 34°39' E 135°28'0 0.0
2015-Aug-22 19:33N 34°39' E 135°28'0 0.0
2015-Aug-22 18:33N 34°39' E 135°28'0 0.0
2015-Aug-22 17:33N 34°39' E 135°28'0 0.0
2015-Aug-22 16:33N 34°39' E 135°28'0 0.0
2015-Aug-22 15:33N 34°39' E 135°28'0 0.0
2015-Aug-22 14:33N 34°39' E 135°28'0 0.0
2015-Aug-22 13:33N 34°39' E 135°28'0 0.0
2015-Aug-22 12:33N 34°39' E 135°28'0 0.0
2015-Aug-22 11:33N 34°39' E 135°28'0 0.0
2015-Aug-22 10:33N 34°39' E 135°28'0 0.0
2015-Aug-22 09:33N 34°39' E 135°28'0 0.0
2015-Aug-22 08:33N 34°39' E 135°28'0 0.0
2015-Aug-22 07:33N 34°39' E 135°28'0 0.0
2015-Aug-22 06:33N 34°39' E 135°28'5 4.7
2015-Aug-22 05:33N 34°37' E 135°22'0 0.4
2015-Aug-22 04:33N 34°37' E 135°23'0 0.0
2015-Aug-22 03:33N 34°37' E 135°23'0 0.3
2015-Aug-22 02:33N 34°37' E 135°22'1111.1
2015-Aug-22 01:33N 34°29' E 135°13'1110.9
2015-Aug-22 00:33N 34°20' E 135°05'1110.8
2015-Aug-21 23:33N 34°10' E 135°03'  

Dump ship's entire track history